CFB Cold Lake
CYOD : now visible

Airfield :











YOU CAN JOIN US ON...

 
LOGIN :

Register | Disclaimer

   EN    FR    IT 

 









Legend :    VFR   Marginal VFR   IFR   Intensive IFR   Very Intensive IFR
Visi :
Ceiling :
>= 8 km
>= 3000ft
5 to 8 km
1000 to 3000 ft
1500m to 5 km
500 to 1000 ft
800 to 1500m
200 to 500 ft
< 800m
< 200 ft
Symbols :   Thunderstorms  Fog  Heavy snow  Heavy precipitations  Wind > 20 kt







- Airport Elevation : 1775 ft
- IATA code : YOD


CYOD - CFB Cold Lake

CURRENT METAR :
  • 260200Z 27003KT 15SM FEW030TCU SCT200 15/12 A2982 RMK TCU2CI2 SLP110

EXPIRED METARs :
  • 260100Z 25006KT 15SM BKN030TCU BKN150 15/13 A2981 RMK TCU5AC2 SLP105
  • 260035Z 24006KT 15SM SCT030CB BKN070 15/12 A2980 RMK CB4AC2 CB ALQDS MOVG SE SLP104
  • 260000Z 33013KT 8SM -TSRA BKN030CB BKN070 16/10 A2981 RMK CB6AC1 CB ALQDS MOVG SE OCNL LTGCCCG LTNG DTCTRS REP STRIKES 5 NM W QUAD SLP107

TAF TAF CYOD
Valid from the 26 at 00:00 until the 27 at 00:00 UTC


252330Z 2600/2624 30010KT P6SM SCT040 BKN080
TEMPO 2600/2601 VRB15G25KT 2SM TSRA BR OVC040CB
FM260100 28008KT P6SM BKN030
TEMPO 2601/2609 6SM -SHRA BR
FM260900 27008KT 6SM BR SCT015 OVC020
TEMPO 2609/2615 3SM -SHRA BR OVC012
FM261500 29012G22KT P6SM BKN025
TEMPO 2620/2624 5SM -SHRA BR OVC015 RMK NXT FCST BY 260600Z
No reported NOTAMs for that airfield.



MET'MAP, your aeronautical weather chart ! - Copyright ORBIFLY December 2007 - Disclaimer

ORBIFLY MET'MAP TEAM :

Programming & Development : Alexandra Zaïnal
Concept & Development : Baudouin d'Aumeries
Co-Development & Prog : Marc-Olivier Méhu
Technical & hardware support : Manuel Goepfert

Contact : metmap@orbifly.com




SOURCES & CREDITS :

   NOAA       Earth
Advisory